Time,TemperatureF,DewpointF,PressureIn,WindDirection,WindDirectionDegrees,WindSpeedMPH,WindSpeedGustMPH,Humidity,HourlyPrecipIn,Conditions,Clouds,dailyrainin,SoftwareType,DateUTC
2014-12-20 00:08:00,52.9,52.1,30.13,NE,46,1.0,1.0,97,0.04,,,0.01,Wunderground v.1.15,2014-12-20 08:08:00,
2014-12-20 00:18:00,53.0,52.2,30.14,SSW,198,1.0,1.0,97,0.00,,,0.01,Wunderground v.1.15,2014-12-20 08:18:00,
2014-12-20 00:23:00,53.0,52.2,30.14,WNW,295,1.0,1.0,97,0.00,,,0.02,Wunderground v.1.15,2014-12-20 08:23:00,
2014-12-20 00:28:00,53.0,52.2,30.13,WSW,249,1.0,2.0,97,0.00,,,0.02,Wunderground v.1.15,2014-12-20 08:28:00,
2014-12-20 00:38:00,53.0,52.2,30.13,West,272,0.0,0.0,97,0.00,,,0.02,Wunderground v.1.15,2014-12-20 08:38:00,
2014-12-20 00:43:00,53.0,52.2,30.13,WSW,247,0.0,1.0,97,0.00,,,0.02,Wunderground v.1.15,2014-12-20 08:43:00,
2014-12-20 00:53:00,53.0,52.2,30.12,SE,133,1.0,2.0,97,0.00,,,0.02,Wunderground v.1.15,2014-12-20 08:53:00,
2014-12-20 00:58:00,53.0,52.2,30.12,SE,139,1.0,2.0,97,0.00,,,0.02,Wunderground v.1.15,2014-12-20 08:58:00,
2014-12-20 01:08:00,53.0,52.2,30.12,SSE,162,1.0,1.0,97,0.00,,,0.02,Wunderground v.1.15,2014-12-20 09:08:00,
2014-12-20 01:13:00,53.0,52.2,30.12,SSE,163,0.0,0.0,97,0.00,,,0.02,Wunderground v.1.15,2014-12-20 09:13:00,
2014-12-20 01:18:00,53.1,52.3,30.12,South,184,1.0,1.0,97,0.00,,,0.02,Wunderground v.1.15,2014-12-20 09:18:00,
2014-12-20 01:28:00,53.2,52.4,30.13,SSW,193,2.0,2.0,97,0.00,,,0.03,Wunderground v.1.15,2014-12-20 09:28:00,
2014-12-20 01:38:00,53.2,52.4,30.12,South,177,1.0,1.0,97,0.00,,,0.03,Wunderground v.1.15,2014-12-20 09:38:00,
2014-12-20 01:43:00,53.1,52.3,30.13,South,172,1.0,2.0,97,0.00,,,0.03,Wunderground v.1.15,2014-12-20 09:43:00,
2014-12-20 01:48:00,53.2,52.4,30.13,South,175,1.0,2.0,97,0.00,,,0.03,Wunderground v.1.15,2014-12-20 09:48:00,
2014-12-20 01:53:00,53.2,52.4,30.14,SW,226,1.0,1.0,97,0.00,,,0.03,Wunderground v.1.15,2014-12-20 09:53:00,
2014-12-20 02:03:00,53.2,52.4,30.14,SSW,204,1.0,1.0,97,0.00,,,0.03,Wunderground v.1.15,2014-12-20 10:03:00,
2014-12-20 02:13:00,53.3,52.5,30.14,SSW,203,2.0,3.0,97,0.00,,,0.03,Wunderground v.1.15,2014-12-20 10:13:00,
2014-12-20 02:18:00,53.3,52.5,30.15,SSW,207,2.0,3.0,97,0.00,,,0.03,Wunderground v.1.15,2014-12-20 10:18:00,
2014-12-20 02:23:00,53.3,52.5,30.14,South,188,2.0,2.0,97,0.00,,,0.03,Wunderground v.1.15,2014-12-20 10:23:00,
2014-12-20 02:28:00,53.3,52.5,30.13,SSW,193,2.0,2.0,97,0.00,,,0.03,Wunderground v.1.15,2014-12-20 10:28:00,
2014-12-20 02:33:00,53.3,52.5,30.13,South,190,2.0,3.0,97,0.00,,,0.03,Wunderground v.1.15,2014-12-20 10:33:00,
2014-12-20 02:38:00,53.3,52.5,30.13,South,182,2.0,3.0,97,0.00,,,0.03,Wunderground v.1.15,2014-12-20 10:38:00,
2014-12-20 02:43:00,53.3,52.5,30.13,South,191,2.0,2.0,97,0.00,,,0.03,Wunderground v.1.15,2014-12-20 10:43:00,
2014-12-20 02:53:00,53.3,52.5,30.13,South,188,3.0,4.0,97,0.00,,,0.03,Wunderground v.1.15,2014-12-20 10:53:00,
2014-12-20 02:58:00,53.3,52.5,30.13,South,181,3.0,4.0,97,0.00,,,0.03,Wunderground v.1.15,2014-12-20 10:58:00,
2014-12-20 03:03:00,53.2,52.4,30.14,South,191,3.0,3.0,97,0.00,,,0.03,Wunderground v.1.15,2014-12-20 11:03:00,
2014-12-20 03:13:00,53.2,52.4,30.12,SE,145,2.0,2.0,97,0.00,,,0.03,Wunderground v.1.15,2014-12-20 11:13:00,
2014-12-20 03:18:00,53.2,52.4,30.12,SSW,193,2.0,2.0,97,0.00,,,0.03,Wunderground v.1.15,2014-12-20 11:18:00,
2014-12-20 03:23:00,53.2,52.4,30.12,South,180,2.0,2.0,97,0.00,,,0.03,Wunderground v.1.15,2014-12-20 11:23:00,
2014-12-20 03:28:00,53.2,52.4,30.12,SSE,158,1.0,2.0,97,0.00,,,0.03,Wunderground v.1.15,2014-12-20 11:28:00,
2014-12-20 03:38:00,53.2,52.4,30.13,South,184,1.0,1.0,97,0.00,,,0.03,Wunderground v.1.15,2014-12-20 11:38:00,
2014-12-20 03:48:00,53.3,52.5,30.13,SSW,196,1.0,2.0,97,0.00,,,0.03,Wunderground v.1.15,2014-12-20 11:48:00,
2014-12-20 03:53:00,53.2,52.4,30.13,SW,217,1.0,2.0,97,0.00,,,0.03,Wunderground v.1.15,2014-12-20 11:53:00,
2014-12-20 03:58:00,53.2,52.4,30.13,SSW,195,1.0,2.0,97,0.00,,,0.03,Wunderground v.1.15,2014-12-20 11:58:00,
2014-12-20 04:08:00,53.2,52.4,30.12,South,190,2.0,2.0,97,0.00,,,0.03,Wunderground v.1.15,2014-12-20 12:08:00,
2014-12-20 04:13:00,53.2,52.4,30.12,South,190,1.0,1.0,97,0.00,,,0.03,Wunderground v.1.15,2014-12-20 12:13:00,
2014-12-20 04:23:00,53.1,52.3,30.13,SSW,193,1.0,1.0,97,0.00,,,0.03,Wunderground v.1.15,2014-12-20 12:23:00,
2014-12-20 04:28:00,53.1,52.3,30.13,NNW,342,1.0,1.0,97,0.00,,,0.03,Wunderground v.1.15,2014-12-20 12:28:00,
2014-12-20 04:38:00,53.0,52.2,30.12,North,352,1.0,1.0,97,0.00,,,0.03,Wunderground v.1.15,2014-12-20 12:38:00,
2014-12-20 04:43:00,52.9,52.1,30.12,NNE,17,2.0,2.0,97,0.00,,,0.03,Wunderground v.1.15,2014-12-20 12:43:00,
2014-12-20 04:48:00,52.8,52.0,30.12,NNE,17,2.0,2.0,97,0.00,,,0.03,Wunderground v.1.15,2014-12-20 12:48:00,
2014-12-20 04:58:00,52.7,51.9,30.13,NE,49,1.0,1.0,97,0.00,,,0.03,Wunderground v.1.15,2014-12-20 12:58:00,
2014-12-20 05:08:00,52.5,51.7,30.13,NNE,25,0.0,1.0,97,0.00,,,0.03,Wunderground v.1.15,2014-12-20 13:08:00,
2014-12-20 05:13:00,52.3,51.5,30.14,NNE,25,0.0,0.0,97,0.00,,,0.03,Wunderground v.1.15,2014-12-20 13:13:00,
2014-12-20 05:18:00,52.1,51.3,30.14,NNE,25,0.0,0.0,97,0.00,,,0.03,Wunderground v.1.15,2014-12-20 13:18:00,
2014-12-20 05:23:00,51.9,51.1,30.14,NNE,25,0.0,0.0,97,0.00,,,0.03,Wunderground v.1.15,2014-12-20 13:23:00,
2014-12-20 05:33:00,51.8,51.0,30.14,NNE,25,0.0,0.0,97,0.00,,,0.03,Wunderground v.1.15,2014-12-20 13:33:00,
2014-12-20 05:38:00,51.9,51.1,30.14,NNE,25,1.0,1.0,97,0.00,,,0.03,Wunderground v.1.15,2014-12-20 13:38:00,
2014-12-20 05:43:00,51.8,51.0,30.14,NNE,25,1.0,1.0,97,0.00,,,0.03,Wunderground v.1.15,2014-12-20 13:43:00,
2014-12-20 05:48:00,51.7,50.9,30.14,NNE,25,1.0,1.0,97,0.00,,,0.03,Wunderground v.1.15,2014-12-20 13:48:00,
2014-12-20 05:53:00,51.7,50.9,30.14,NNE,25,1.0,1.0,97,0.00,,,0.03,Wunderground v.1.15,2014-12-20 13:53:00,
2014-12-20 05:58:00,51.7,50.9,30.13,NNE,25,1.0,1.0,97,0.00,,,0.03,Wunderground v.1.15,2014-12-20 13:58:00,
2014-12-20 06:08:00,51.6,50.8,30.13,NNE,25,0.0,1.0,97,0.00,,,0.03,Wunderground v.1.15,2014-12-20 14:08:00,
2014-12-20 06:13:00,51.4,50.6,30.13,SSE,150,0.0,1.0,97,0.00,,,0.03,Wunderground v.1.15,2014-12-20 14:13:00,
2014-12-20 06:18:00,51.4,50.6,30.14,SE,132,1.0,1.0,97,0.00,,,0.03,Wunderground v.1.15,2014-12-20 14:18:00,
2014-12-20 06:23:00,51.6,50.8,30.14,SE,132,0.0,1.0,97,0.00,,,0.03,Wunderground v.1.15,2014-12-20 14:23:00,
2014-12-20 06:28:00,51.6,50.8,30.14,SE,132,0.0,1.0,97,0.00,,,0.03,Wunderground v.1.15,2014-12-20 14:28:00,
2014-12-20 06:38:00,51.8,51.0,30.14,East,92,0.0,1.0,97,0.00,,,0.03,Wunderground v.1.15,2014-12-20 14:38:00,
2014-12-20 06:43:00,51.9,51.1,30.14,ENE,68,0.0,0.0,97,0.00,,,0.03,Wunderground v.1.15,2014-12-20 14:43:00,
2014-12-20 06:48:00,51.9,51.1,30.14,ENE,61,1.0,1.0,97,0.00,,,0.03,Wunderground v.1.15,2014-12-20 14:48:00,
2014-12-20 06:53:00,52.0,51.2,30.14,ENE,57,1.0,1.0,97,0.00,,,0.03,Wunderground v.1.15,2014-12-20 14:53:00,
2014-12-20 07:03:00,52.1,51.3,30.15,NE,50,1.0,1.0,97,0.00,,,0.03,Wunderground v.1.15,2014-12-20 15:03:00,
2014-12-20 07:08:00,52.1,51.3,30.14,ENE,60,1.0,3.0,97,0.00,,,0.03,Wunderground v.1.15,2014-12-20 15:08:00,
2014-12-20 07:18:00,52.0,51.2,30.15,NE,41,2.0,3.0,97,0.00,,,0.03,Wunderground v.1.15,2014-12-20 15:18:00,
2014-12-20 07:23:00,52.0,51.2,30.15,NNE,26,2.0,2.0,97,0.00,,,0.03,Wunderground v.1.15,2014-12-20 15:23:00,
2014-12-20 07:28:00,52.0,51.2,30.15,ENE,77,2.0,2.0,97,0.00,,,0.03,Wunderground v.1.15,2014-12-20 15:28:00,
2014-12-20 07:38:00,52.1,51.3,30.15,NNE,27,1.0,2.0,97,0.00,,,0.03,Wunderground v.1.15,2014-12-20 15:38:00,
2014-12-20 07:43:00,52.1,51.3,30.16,NNE,27,1.0,1.0,97,0.00,,,0.03,Wunderground v.1.15,2014-12-20 15:43:00,
2014-12-20 07:53:00,52.1,51.3,30.16,NE,51,1.0,1.0,97,0.00,,,0.03,Wunderground v.1.15,2014-12-20 15:53:00,
2014-12-20 07:58:00,52.1,51.3,30.15,ENE,65,1.0,1.0,97,0.00,,,0.03,Wunderground v.1.15,2014-12-20 15:58:00,
2014-12-20 08:08:00,52.2,51.4,30.17,WSW,240,1.0,1.0,97,0.00,,,0.03,Wunderground v.1.15,2014-12-20 16:08:00,
2014-12-20 08:13:00,52.3,51.5,30.17,NNW,338,1.0,1.0,97,0.00,,,0.03,Wunderground v.1.15,2014-12-20 16:13:00,
2014-12-20 08:18:00,52.3,51.5,30.18,North,9,1.0,2.0,97,0.00,,,0.03,Wunderground v.1.15,2014-12-20 16:18:00,
2014-12-20 08:28:00,52.4,51.6,30.18,NNE,22,1.0,1.0,97,0.00,,,0.03,Wunderground v.1.15,2014-12-20 16:28:00,
2014-12-20 08:38:00,52.6,51.8,30.20,WSW,257,2.0,2.0,97,0.00,,,0.03,Wunderground v.1.15,2014-12-20 16:38:00,
2014-12-20 08:43:00,52.6,51.8,30.18,North,360,2.0,2.0,97,0.00,,,0.04,Wunderground v.1.15,2014-12-20 16:43:00,
2014-12-20 08:48:00,52.7,51.9,30.18,North,6,1.0,2.0,97,0.00,,,0.04,Wunderground v.1.15,2014-12-20 16:48:00,
2014-12-20 08:53:00,52.9,52.1,30.19,North,6,1.0,2.0,97,0.00,,,0.04,Wunderground v.1.15,2014-12-20 16:53:00,
2014-12-20 09:03:00,53.1,52.3,30.20,North,6,1.0,1.0,97,0.00,,,0.04,Wunderground v.1.15,2014-12-20 17:03:00,
2014-12-20 09:08:00,53.1,52.3,30.20,North,6,0.0,1.0,97,0.00,,,0.04,Wunderground v.1.15,2014-12-20 17:08:00,
2014-12-20 09:13:00,53.1,52.3,30.20,North,6,0.0,1.0,97,0.00,,,0.04,Wunderground v.1.15,2014-12-20 17:13:00,
2014-12-20 09:18:00,53.2,52.4,30.20,North,6,0.0,1.0,97,0.00,,,0.04,Wunderground v.1.15,2014-12-20 17:18:00,
2014-12-20 09:23:00,53.4,52.6,30.20,ENE,58,0.0,2.0,97,0.00,,,0.04,Wunderground v.1.15,2014-12-20 17:23:00,
2014-12-20 09:28:00,53.5,52.7,30.21,NE,42,1.0,2.0,97,0.00,,,0.04,Wunderground v.1.15,2014-12-20 17:28:00,
2014-12-20 09:33:00,53.8,53.2,30.20,NE,42,1.0,1.0,98,0.00,,,0.04,Wunderground v.1.15,2014-12-20 17:33:00,
2014-12-20 09:38:00,54.1,53.5,30.20,East,94,1.0,1.0,98,0.00,,,0.04,Wunderground v.1.15,2014-12-20 17:38:00,
2014-12-20 09:43:00,54.4,53.8,30.20,ENE,75,1.0,1.0,98,0.00,,,0.04,Wunderground v.1.15,2014-12-20 17:43:00,
2014-12-20 09:48:00,54.5,53.9,30.20,ENE,64,1.0,2.0,98,0.00,,,0.04,Wunderground v.1.15,2014-12-20 17:48:00,
2014-12-20 09:53:00,54.6,54.0,30.20,NE,56,1.0,1.0,98,0.00,,,0.04,Wunderground v.1.15,2014-12-20 17:53:00,
2014-12-20 09:58:00,54.7,53.9,30.20,NE,56,1.0,1.0,97,0.00,,,0.04,Wunderground v.1.15,2014-12-20 17:58:00,
2014-12-20 10:08:00,55.1,54.3,30.21,South,190,1.0,2.0,97,0.00,,,0.04,Wunderground v.1.15,2014-12-20 18:08:00,
2014-12-20 10:13:00,55.2,54.4,30.20,South,184,2.0,2.0,97,0.00,,,0.04,Wunderground v.1.15,2014-12-20 18:13:00,
2014-12-20 10:18:00,55.4,54.6,30.21,South,184,1.0,2.0,97,0.00,,,0.04,Wunderground v.1.15,2014-12-20 18:18:00,
2014-12-20 10:23:00,55.7,54.9,30.21,SE,124,1.0,2.0,97,0.00,,,0.04,Wunderground v.1.15,2014-12-20 18:23:00,
2014-12-20 10:28:00,55.7,54.9,30.20,ESE,123,1.0,3.0,97,0.00,,,0.04,Wunderground v.1.15,2014-12-20 18:28:00,
2014-12-20 10:38:00,56.0,55.2,30.20,SSE,165,1.0,2.0,97,0.00,,,0.04,Wunderground v.1.15,2014-12-20 18:38:00,
2014-12-20 10:48:00,55.9,55.1,30.20,SSE,163,1.0,2.0,97,0.00,,,0.04,Wunderground v.1.15,2014-12-20 18:48:00,
2014-12-20 10:53:00,56.1,55.3,30.21,South,177,1.0,1.0,97,0.00,,,0.04,Wunderground v.1.15,2014-12-20 18:53:00,
2014-12-20 10:58:00,56.1,55.0,30.22,SSW,193,1.0,2.0,96,0.00,,,0.04,Wunderground v.1.15,2014-12-20 18:58:00,
2014-12-20 11:08:00,56.1,55.0,30.21,South,170,2.0,2.0,96,0.00,,,0.04,Wunderground v.1.15,2014-12-20 19:08:00,
2014-12-20 11:13:00,56.2,55.1,30.20,SE,139,2.0,2.0,96,0.00,,,0.04,Wunderground v.1.15,2014-12-20 19:13:00,
2014-12-20 11:23:00,56.9,55.8,30.19,ESE,111,2.0,3.0,96,0.00,,,0.04,Wunderground v.1.15,2014-12-20 19:23:00,
2014-12-20 11:28:00,57.2,56.1,30.20,South,179,2.0,3.0,96,0.00,,,0.04,Wunderground v.1.15,2014-12-20 19:28:00,
2014-12-20 11:33:00,57.5,56.4,30.20,SSE,151,2.0,2.0,96,0.00,,,0.04,Wunderground v.1.15,2014-12-20 19:33:00,
2014-12-20 11:38:00,57.3,55.6,30.20,South,174,2.0,2.0,94,0.00,,,0.04,Wunderground v.1.15,2014-12-20 19:38:00,
2014-12-20 11:43:00,57.3,55.6,30.20,SSW,207,2.0,2.0,94,0.00,,,0.04,Wunderground v.1.15,2014-12-20 19:43:00,
2014-12-20 11:48:00,57.5,55.8,30.20,SSW,192,3.0,3.0,94,0.00,,,0.04,Wunderground v.1.15,2014-12-20 19:48:00,
2014-12-20 11:58:00,57.6,55.6,30.18,SSW,193,2.0,2.0,93,0.00,,,0.04,Wunderground v.1.15,2014-12-20 19:58:00,
2014-12-20 12:03:00,57.5,55.2,30.19,SSW,198,3.0,3.0,92,0.00,,,0.04,Wunderground v.1.15,2014-12-20 20:03:00,
2014-12-20 12:08:00,57.5,55.2,30.19,SW,221,4.0,4.0,92,0.00,,,0.04,Wunderground v.1.15,2014-12-20 20:08:00,
2014-12-20 12:13:00,57.5,54.9,30.19,SSW,193,3.0,3.0,91,0.00,,,0.04,Wunderground v.1.15,2014-12-20 20:13:00,
2014-12-20 12:18:00,57.3,54.4,30.19,SSW,197,2.0,3.0,90,0.00,,,0.04,Wunderground v.1.15,2014-12-20 20:18:00,
2014-12-20 12:23:00,57.4,54.8,30.19,South,185,2.0,3.0,91,0.00,,,0.04,Wunderground v.1.15,2014-12-20 20:23:00,
2014-12-20 12:33:00,57.5,54.9,30.18,SSE,150,2.0,2.0,91,0.00,,,0.04,Wunderground v.1.15,2014-12-20 20:33:00,
2014-12-20 12:38:00,57.6,55.0,30.18,SSW,195,2.0,4.0,91,0.00,,,0.04,Wunderground v.1.15,2014-12-20 20:38:00,
2014-12-20 12:43:00,57.7,55.1,30.18,South,172,2.0,2.0,91,0.00,,,0.04,Wunderground v.1.15,2014-12-20 20:43:00,
2014-12-20 12:48:00,57.9,55.0,30.18,South,184,2.0,3.0,90,0.00,,,0.04,Wunderground v.1.15,2014-12-20 20:48:00,
2014-12-20 12:53:00,58.1,55.2,30.19,SSE,158,2.0,2.0,90,0.00,,,0.04,Wunderground v.1.15,2014-12-20 20:53:00,
2014-12-20 13:03:00,57.9,54.4,30.20,SSW,205,3.0,3.0,88,0.00,,,0.04,Wunderground v.1.15,2014-12-20 21:03:00,
2014-12-20 13:08:00,57.8,54.6,30.18,East,100,2.0,3.0,89,0.00,,,0.04,Wunderground v.1.15,2014-12-20 21:08:00,
2014-12-20 13:13:00,58.0,54.8,30.18,South,182,1.0,3.0,89,0.00,,,0.04,Wunderground v.1.15,2014-12-20 21:13:00,
2014-12-20 13:18:00,58.0,54.5,30.18,SSE,167,2.0,3.0,88,0.00,,,0.04,Wunderground v.1.15,2014-12-20 21:18:00,
2014-12-20 13:28:00,57.9,54.1,30.18,SSE,167,2.0,2.0,87,0.00,,,0.04,Wunderground v.1.15,2014-12-20 21:28:00,
2014-12-20 13:33:00,58.0,54.2,30.18,South,169,2.0,2.0,87,0.00,,,0.04,Wunderground v.1.15,2014-12-20 21:33:00,
2014-12-20 13:38:00,58.1,53.9,30.18,South,187,2.0,2.0,86,0.00,,,0.04,Wunderground v.1.15,2014-12-20 21:38:00,
2014-12-20 13:48:00,58.2,54.0,30.18,SE,141,1.0,2.0,86,0.00,,,0.04,Wunderground v.1.15,2014-12-20 21:48:00,
2014-12-20 13:53:00,58.2,53.7,30.19,South,180,1.0,1.0,85,0.00,,,0.04,Wunderground v.1.15,2014-12-20 21:53:00,
2014-12-20 13:58:00,58.3,54.1,30.19,SE,127,2.0,2.0,86,0.00,,,0.04,Wunderground v.1.15,2014-12-20 21:58:00,
2014-12-20 14:03:00,58.4,53.9,30.18,South,177,1.0,2.0,85,0.00,,,0.04,Wunderground v.1.15,2014-12-20 22:03:00,
2014-12-20 14:08:00,58.5,53.0,30.18,South,184,1.0,2.0,82,0.00,,,0.04,Wunderground v.1.15,2014-12-20 22:08:00,
2014-12-20 14:13:00,58.5,53.0,30.19,South,189,2.0,2.0,82,0.00,,,0.04,Wunderground v.1.15,2014-12-20 22:13:00,
2014-12-20 14:23:00,58.6,53.1,30.19,SSW,209,2.0,2.0,82,0.00,,,0.04,Wunderground v.1.15,2014-12-20 22:23:00,
2014-12-20 14:28:00,58.7,53.2,30.18,SSW,195,2.0,2.0,82,0.00,,,0.04,Wunderground v.1.15,2014-12-20 22:28:00,
2014-12-20 14:33:00,58.7,52.9,30.18,SSE,164,2.0,2.0,81,0.00,,,0.04,Wunderground v.1.15,2014-12-20 22:33:00,
2014-12-20 14:38:00,58.9,53.7,30.18,SSW,192,2.0,2.0,83,0.00,,,0.04,Wunderground v.1.15,2014-12-20 22:38:00,
2014-12-20 14:43:00,59.0,53.2,30.17,South,173,1.0,1.0,81,0.00,,,0.04,Wunderground v.1.15,2014-12-20 22:43:00,
2014-12-20 14:48:00,59.1,53.3,30.18,SSE,157,1.0,2.0,81,0.00,,,0.04,Wunderground v.1.15,2014-12-20 22:48:00,
2014-12-20 14:58:00,59.1,52.9,30.18,South,181,2.0,2.0,80,0.00,,,0.04,Wunderground v.1.15,2014-12-20 22:58:00,
2014-12-20 15:03:00,59.1,52.6,30.18,South,179,3.0,3.0,79,0.00,,,0.04,Wunderground v.1.15,2014-12-20 23:03:00,
2014-12-20 15:08:00,58.9,52.7,30.18,South,191,3.0,3.0,80,0.00,,,0.04,Wunderground v.1.15,2014-12-20 23:08:00,
2014-12-20 15:13:00,58.7,52.5,30.18,SSE,168,3.0,3.0,80,0.00,,,0.04,Wunderground v.1.15,2014-12-20 23:13:00,
2014-12-20 15:18:00,58.5,52.4,30.18,South,172,2.0,4.0,80,0.00,,,0.04,Wunderground v.1.15,2014-12-20 23:18:00,
2014-12-20 15:23:00,58.3,52.5,30.18,South,191,3.0,3.0,81,0.00,,,0.04,Wunderground v.1.15,2014-12-20 23:23:00,
2014-12-20 15:33:00,58.1,52.6,30.19,SSE,168,2.0,2.0,82,0.00,,,0.04,Wunderground v.1.15,2014-12-20 23:33:00,
2014-12-20 15:38:00,58.0,52.9,30.19,South,176,2.0,2.0,83,0.00,,,0.04,Wunderground v.1.15,2014-12-20 23:38:00,
2014-12-20 15:43:00,57.9,52.8,30.19,South,187,2.0,3.0,83,0.00,,,0.04,Wunderground v.1.15,2014-12-20 23:43:00,
2014-12-20 15:48:00,57.7,52.6,30.20,SSW,207,3.0,3.0,83,0.00,,,0.04,Wunderground v.1.15,2014-12-20 23:48:00,
2014-12-20 15:53:00,57.5,52.7,30.20,South,171,2.0,2.0,84,0.00,,,0.04,Wunderground v.1.15,2014-12-20 23:53:00,
2014-12-20 15:58:00,57.5,53.0,30.20,SSE,166,1.0,2.0,85,0.00,,,0.04,Wunderground v.1.15,2014-12-20 23:58:00,
2014-12-20 16:08:00,57.3,52.8,30.21,SW,214,2.0,3.0,85,0.00,,,0.04,Wunderground v.1.15,2014-12-21 00:08:00,
2014-12-20 16:13:00,57.1,53.0,30.21,South,185,2.0,2.0,86,0.00,,,0.04,Wunderground v.1.15,2014-12-21 00:13:00,
2014-12-20 16:18:00,57.0,52.9,30.21,South,180,2.0,2.0,86,0.00,,,0.04,Wunderground v.1.15,2014-12-21 00:18:00,
2014-12-20 16:23:00,56.8,52.7,30.20,SE,139,2.0,2.0,86,0.00,,,0.04,Wunderground v.1.15,2014-12-21 00:23:00,
2014-12-20 16:28:00,56.7,52.6,30.20,SSE,165,2.0,2.0,86,0.00,,,0.04,Wunderground v.1.15,2014-12-21 00:28:00,
2014-12-20 16:33:00,56.6,52.5,30.20,SSW,192,1.0,3.0,86,0.00,,,0.04,Wunderground v.1.15,2014-12-21 00:33:00,
2014-12-20 16:43:00,56.2,52.1,30.20,South,179,3.0,3.0,86,0.00,,,0.04,Wunderground v.1.15,2014-12-21 00:43:00,